Time;durP1;ratioP1;P1;durP2;ratioP2;P2;SDS_P1;SDS_P2;PMS_P1;PMS_P2;Temp;Humidity;BMP_temperature;BMP_pressure;BME280_temperature;BME280_humidity;BME280_pressure;Samples;Min_cycle;Max_cycle;Signal;HPM_P1;HPM_P2
2023/04/06 00:03:41;;;;;;;32.70;13.90;;;;;;;-1.01;80.32;101186.86;214461;1285;139341;-83
2023/04/06 00:08:42;;;;;;;31.20;14.10;;;;;;;-1.04;80.33;101187.54;214903;1285;139180;-82
2023/04/06 00:13:42;;;;;;;29.70;13.90;;;;;;;-1.08;80.63;101189.29;214447;1285;139490;-83
2023/04/06 00:18:42;;;;;;;33.60;13.40;;;;;;;-1.11;80.58;101184.89;214077;1288;139338;-82
2023/04/06 00:23:43;;;;;;;29.80;13.60;;;;;;;-1.15;81.06;101180.81;212697;1285;139221;-82
2023/04/06 00:28:43;;;;;;;27.70;13.60;;;;;;;-1.20;81.12;101177.77;213375;1289;99329;-82
2023/04/06 00:33:44;;;;;;;32.80;15.10;;;;;;;-1.24;81.76;101178.08;212696;1290;138816;-81
2023/04/06 00:38:45;;;;;;;33.60;14.90;;;;;;;-1.30;81.82;101173.04;213209;1289;139116;-81
2023/04/06 00:43:45;;;;;;;35.70;14.20;;;;;;;-1.35;81.92;101173.35;212775;1291;139604;-81
2023/04/06 00:48:46;;;;;;;27.50;14.70;;;;;;;-1.40;82.23;101177.27;212610;1290;139799;-80
2023/04/06 00:53:46;;;;;;;28.10;13.50;;;;;;;-1.44;82.44;101176.10;213114;1285;139250;-80
2023/04/06 00:58:47;;;;;;;27.60;13.60;;;;;;;-1.48;82.58;101178.49;212897;1287;140443;-81
2023/04/06 01:03:49;;;;;;;29.50;14.20;;;;;;;-1.51;82.57;101175.02;212933;1286;223039;-81
2023/04/06 01:08:50;;;;;;;41.50;17.10;;;;;;;-1.55;82.66;101170.07;212655;1289;140502;-81
2023/04/06 01:13:50;;;;;;;40.30;17.70;;;;;;;-1.57;82.87;101175.09;213115;1286;140396;-81
2023/04/06 01:18:51;;;;;;;37.10;16.00;;;;;;;-1.60;83.20;101172.53;212626;1287;139654;-81
2023/04/06 01:23:51;;;;;;;35.90;15.50;;;;;;;-1.62;83.60;101174.64;213135;1285;139207;-80
2023/04/06 01:28:52;;;;;;;32.10;17.30;;;;;;;-1.64;83.70;101178.64;212753;1290;139350;-81
2023/04/06 01:33:53;;;;;;;35.70;17.10;;;;;;;-1.67;83.22;101179.04;213227;1291;139722;-81
2023/04/06 01:38:53;;;;;;;35.20;16.10;;;;;;;-1.71;83.27;101181.39;212695;1286;140710;-80
2023/04/06 01:43:54;;;;;;;35.30;16.20;;;;;;;-1.74;83.40;101178.65;213225;1288;140093;-80
2023/04/06 01:48:54;;;;;;;37.50;16.00;;;;;;;-1.75;83.86;101172.82;212739;1290;139828;-81
2023/04/06 01:53:55;;;;;;;33.20;15.70;;;;;;;-1.76;84.22;101170.89;213179;1291;139513;-80
2023/04/06 01:58:56;;;;;;;40.00;18.70;;;;;;;-1.76;84.42;101174.98;212753;1289;140270;-80
2023/04/06 02:03:56;;;;;;;40.20;18.10;;;;;;;-1.76;84.64;101174.06;213174;1289;140277;-80
2023/04/06 02:08:57;;;;;;;34.80;17.50;;;;;;;-1.79;84.50;101173.37;212732;1285;139325;-80
2023/04/06 02:13:57;;;;;;;37.20;18.10;;;;;;;-1.81;84.59;101173.27;213208;1290;139329;-81
2023/04/06 02:18:58;;;;;;;36.50;18.00;;;;;;;-1.82;84.92;101168.85;212598;1291;140374;-80
2023/04/06 02:23:58;;;;;;;33.50;15.80;;;;;;;-1.85;84.95;101167.41;213204;1285;139263;-81
2023/04/06 02:28:58;;;;;;;35.10;17.00;;;;;;;-1.88;84.72;101166.14;212792;1290;140401;-81
2023/04/06 02:33:59;;;;;;;34.50;17.90;;;;;;;-1.90;85.28;101163.67;213231;1285;139494;-81
2023/04/06 02:38:59;;;;;;;44.90;21.60;;;;;;;-1.91;85.33;101164.37;212690;1291;140365;-81
2023/04/06 02:44:00;;;;;;;59.40;25.10;;;;;;;-1.93;85.71;101167.61;213181;1291;139477;-80
2023/04/06 02:49:00;;;;;;;50.90;23.40;;;;;;;-1.95;85.45;101165.95;212629;1288;139597;-80
2023/04/06 02:54:00;;;;;;;45.50;21.80;;;;;;;-1.99;85.39;101170.94;213145;1285;141056;-81
2023/04/06 02:59:01;;;;;;;45.20;20.90;;;;;;;-2.01;85.53;101179.04;212811;1286;140484;-80
2023/04/06 03:04:02;;;;;;;39.70;21.90;;;;;;;-2.02;86.07;101180.83;213247;1285;139097;-80
2023/04/06 03:09:03;;;;;;;35.60;18.90;;;;;;;-2.03;86.14;101186.59;212762;1298;139931;-80
2023/04/06 03:14:03;;;;;;;39.90;17.90;;;;;;;-2.05;86.13;101189.73;213226;1286;139796;-81
2023/04/06 03:19:04;;;;;;;41.50;18.80;;;;;;;-2.06;86.38;101191.67;212712;1290;139564;-81
2023/04/06 03:24:05;;;;;;;41.90;21.80;;;;;;;-2.08;86.54;101192.23;213202;1289;139259;-80
2023/04/06 03:29:05;;;;;;;38.90;22.00;;;;;;;-2.11;86.44;101198.70;212761;1288;140116;-78
2023/04/06 03:34:06;;;;;;;37.00;18.50;;;;;;;-2.16;86.56;101199.15;213208;1288;138952;-80
2023/04/06 03:39:06;;;;;;;39.90;19.90;;;;;;;-2.18;86.67;101200.39;212685;1291;139547;-79
2023/04/06 03:44:07;;;;;;;36.60;19.30;;;;;;;-2.21;86.92;101205.64;213189;1285;140739;-79
2023/04/06 03:49:07;;;;;;;42.20;20.80;;;;;;;-2.21;87.13;101210.06;212744;1285;140221;-79
2023/04/06 03:54:07;;;;;;;40.20;20.60;;;;;;;-2.22;87.34;101214.55;213218;1285;140926;-79
2023/04/06 03:59:08;;;;;;;43.30;20.90;;;;;;;-2.25;87.35;101214.76;212554;1285;141946;-78
2023/04/06 04:04:16;;;;;;;42.50;19.20;;;;;;;-2.26;87.60;101214.41;212229;1294;636769;-79
2023/04/06 04:09:17;;;;;;;38.90;20.00;;;;;;;-2.29;87.83;101215.79;211000;1297;138313;-79
2023/04/06 04:14:17;;;;;;;38.30;19.60;;;;;;;-2.32;87.55;101216.29;211492;1291;359272;-77
2023/04/06 04:19:17;;;;;;;44.30;19.40;;;;;;;-2.34;87.75;101216.52;211832;1289;138584;-79
2023/04/06 04:24:18;;;;;;;40.30;20.00;;;;;;;-2.35;88.30;101217.80;212337;1294;138828;-79
2023/04/06 04:29:21;;;;;;;38.20;20.60;;;;;;;-2.39;87.96;101214.79;211750;1291;138443;-79
2023/04/06 04:34:23;;;;;;;38.30;19.60;;;;;;;-2.42;88.62;101218.61;212325;1293;94463;-80
2023/04/06 04:39:24;;;;;;;43.00;21.00;;;;;;;-2.44;88.63;101220.25;211690;1293;138776;-80
2023/04/06 04:44:24;;;;;;;41.10;21.00;;;;;;;-2.45;88.56;101214.53;212223;1292;138481;-80
2023/04/06 04:49:25;;;;;;;41.10;20.80;;;;;;;-2.47;88.54;101219.71;211789;1291;138615;-80
2023/04/06 04:54:25;;;;;;;44.00;21.60;;;;;;;-2.48;88.57;101223.00;212348;1293;138575;-79
2023/04/06 04:59:26;;;;;;;41.40;21.10;;;;;;;-2.48;88.70;101228.29;211823;1294;138644;-79
2023/04/06 05:04:26;;;;;;;45.00;21.70;;;;;;;-2.46;88.50;101224.52;217680;1293;95751;-80
2023/04/06 05:09:29;;;;;;;45.80;23.30;;;;;;;-2.43;88.76;101228.05;211643;1293;138888;-79
2023/04/06 05:14:30;;;;;;;39.90;21.60;;;;;;;-2.39;89.10;101229.67;216803;1291;138362;-80
2023/04/06 05:19:31;;;;;;;38.30;19.90;;;;;;;-2.32;88.79;101230.47;211413;1297;139215;-79
2023/04/06 05:24:31;;;;;;;39.10;19.20;;;;;;;-2.28;88.70;101233.10;211958;1294;139403;-79
2023/04/06 05:29:32;;;;;;;42.30;20.20;;;;;;;-2.21;88.73;101237.77;211471;1295;138493;-79
2023/04/06 05:34:32;;;;;;;38.90;20.20;;;;;;;-2.15;88.12;101243.85;212100;1294;95361;-78
2023/04/06 05:39:32;;;;;;;39.90;19.00;;;;;;;-2.05;88.50;101246.42;211487;1293;138782;-79
2023/04/06 05:44:33;;;;;;;43.70;20.10;;;;;;;-1.91;88.61;101247.09;211851;1292;139089;-79
2023/04/06 05:49:34;;;;;;;39.20;19.30;;;;;;;-1.76;88.40;101252.15;211433;1294;138954;-80
2023/04/06 05:54:36;;;;;;;37.80;19.50;;;;;;;-1.59;88.10;101248.09;212019;1296;138292;-79
2023/04/06 05:59:36;;;;;;;37.70;19.40;;;;;;;-1.38;87.95;101242.69;211409;1293;138926;-79
2023/04/06 06:04:37;;;;;;;36.90;18.90;;;;;;;-1.21;87.61;101238.09;212077;1294;95276;-79
2023/04/06 06:09:37;;;;;;;33.00;16.80;;;;;;;-1.02;87.21;101235.08;211571;1296;139640;-79
2023/04/06 06:14:37;;;;;;;35.70;16.90;;;;;;;-0.72;86.48;101236.63;212102;1296;138185;-78
2023/04/06 06:19:38;;;;;;;39.40;19.10;;;;;;;-0.40;85.96;101237.30;211459;1294;138929;-78
2023/04/06 06:24:38;;;;;;;31.50;16.10;;;;;;;-0.11;85.23;101234.51;211930;1294;138513;-79
2023/04/06 06:29:39;;;;;;;29.90;16.40;;;;;;;0.06;84.69;101239.53;211578;1293;139697;-80
2023/04/06 06:34:39;;;;;;;33.70;16.40;;;;;;;0.21;84.64;101234.16;212289;1296;96608;-81
2023/04/06 06:39:40;;;;;;;32.10;15.80;;;;;;;0.45;83.62;101237.38;211598;1292;138246;-80
2023/04/06 06:44:40;;;;;;;32.90;16.00;;;;;;;0.68;83.30;101240.32;211925;1292;138362;-80
2023/04/06 06:49:40;;;;;;;30.50;15.50;;;;;;;0.90;82.12;101244.07;211805;1291;138844;-80
2023/04/06 06:54:41;;;;;;;31.40;16.20;;;;;;;1.08;81.71;101241.84;212411;1294;138291;-81
2023/04/06 06:59:41;;;;;;;27.40;13.60;;;;;;;1.26;80.86;101246.02;211553;1294;138557;-79
2023/04/06 07:04:42;;;;;;;27.70;13.60;;;;;;;1.47;79.96;101244.42;212087;1297;95307;-81
2023/04/06 07:09:42;;;;;;;30.50;14.50;;;;;;;1.74;79.76;101246.44;211475;1296;138896;-83
2023/04/06 07:14:42;;;;;;;26.60;12.20;;;;;;;1.87;77.91;101245.59;213415;1296;137963;-82
2023/04/06 07:19:43;;;;;;;25.80;12.90;;;;;;;2.02;76.31;101245.15;213128;1294;138751;-83
2023/04/06 07:24:43;;;;;;;23.50;11.30;;;;;;;2.22;75.40;101243.68;213431;1292;138131;-82
2023/04/06 07:29:44;;;;;;;27.30;12.10;;;;;;;2.36;75.12;101239.75;213132;1293;139037;-84
2023/04/06 07:34:45;;;;;;;30.30;13.50;;;;;;;2.46;74.64;101241.94;213887;1294;95275;-83
2023/04/06 07:39:45;;;;;;;26.60;12.70;;;;;;;2.66;73.36;101239.62;213541;1293;138458;-83
2023/04/06 07:44:45;;;;;;;28.00;12.50;;;;;;;2.82;72.86;101234.54;213728;1296;138899;-85
2023/04/06 07:49:46;;;;;;;28.30;12.50;;;;;;;2.90;72.84;101234.35;213325;1293;138248;-81
2023/04/06 07:54:48;;;;;;;25.70;12.80;;;;;;;3.03;71.69;101241.54;213709;1293;138299;-84
2023/04/06 07:59:48;;;;;;;27.50;12.00;;;;;;;3.30;70.73;101234.10;213026;1294;138280;-84
2023/04/06 08:04:49;;;;;;;24.00;11.40;;;;;;;3.48;69.66;101238.95;213818;1293;95338;-84
2023/04/06 08:09:49;;;;;;;24.10;10.60;;;;;;;3.68;68.64;101240.05;213084;1293;138530;-82
2023/04/06 08:14:50;;;;;;;26.00;11.80;;;;;;;3.85;68.62;101236.13;213591;1295;139621;-81
2023/04/06 08:19:50;;;;;;;25.20;12.00;;;;;;;3.98;69.21;101231.84;213129;1293;139510;-81
2023/04/06 08:24:51;;;;;;;22.90;11.40;;;;;;;4.21;68.71;101230.92;213769;1294;138755;-82
2023/04/06 08:29:51;;;;;;;22.70;11.00;;;;;;;4.42;67.66;101227.48;213136;1291;138882;-83
2023/04/06 08:34:55;;;;;;;20.70;11.40;;;;;;;4.62;67.63;101227.00;213674;1296;95292;-84
2023/04/06 08:39:55;;;;;;;15.10;7.90;;;;;;;4.88;66.89;101224.25;213075;1291;138189;-86
2023/04/06 08:44:56;;;;;;;15.30;7.80;;;;;;;5.24;67.14;101226.95;213598;1293;138880;-83
2023/04/06 08:49:56;;;;;;;13.20;7.30;;;;;;;5.74;68.38;101220.81;212909;1294;138207;-84
2023/04/06 08:54:57;;;;;;;14.40;7.20;;;;;;;6.37;66.66;101217.63;213447;1294;138562;-85
2023/04/06 08:59:57;;;;;;;16.30;6.70;;;;;;;7.06;65.99;101220.20;213156;1296;138706;-85
2023/04/06 09:05:00;;;;;;;12.60;6.10;;;;;;;8.13;68.83;101215.07;213756;1292;95321;-86
2023/04/06 09:10:00;;;;;;;13.50;6.40;;;;;;;9.35;66.44;101209.48;213061;1294;138112;-86
2023/04/06 09:15:01;;;;;;;13.90;6.70;;;;;;;10.08;60.48;101210.02;213562;1294;137848;-84
2023/04/06 09:20:03;;;;;;;13.80;5.90;;;;;;;10.44;57.80;101205.17;212999;1292;137581;-87
2023/04/06 09:25:04;;;;;;;12.90;6.60;;;;;;;10.92;57.37;101203.91;213608;1294;137641;-86
2023/04/06 09:30:13;;;;;;;13.60;6.40;;;;;;;11.96;58.92;101194.66;213019;1294;138703;-85
2023/04/06 09:35:14;;;;;;;12.00;5.10;;;;;;;12.80;56.84;101195.27;213618;1294;137755;-86
2023/04/06 09:40:17;;;;;;;10.60;5.00;;;;;;;12.80;48.61;101196.05;213124;1294;138001;-86
2023/04/06 09:45:17;;;;;;;9.80;5.20;;;;;;;12.57;52.30;101188.68;213532;1296;138441;-86
2023/04/06 09:50:19;;;;;;;11.40;5.60;;;;;;;13.33;52.17;101187.70;213411;1296;138221;-85
2023/04/06 09:55:36;;;;;;;18.90;15.30;;;;;;;14.31;51.28;101183.23;213630;1293;138035;-86
2023/04/06 10:00:54;;;;;;;12.00;6.10;;;;;;;14.34;47.68;101177.20;213135;1296;139232;-84
2023/04/06 10:05:58;;;;;;;12.80;7.80;;;;;;;14.82;46.80;101179.27;213824;1296;137593;-85
2023/04/06 10:11:00;;;;;;;14.80;7.30;;;;;;;14.59;44.32;101174.13;213281;1296;137831;-85
2023/04/06 10:16:01;;;;;;;11.60;6.00;;;;;;;14.11;41.22;101171.67;213834;1292;137786;-84
2023/04/06 10:21:19;;;;;;;10.00;5.30;;;;;;;13.96;44.65;101165.45;213506;1294;138532;-84
2023/04/06 10:26:21;;;;;;;9.90;5.30;;;;;;;15.20;46.44;101163.84;213859;1294;138306;-86
2023/04/06 10:31:26;;;;;;;10.60;6.00;;;;;;;15.90;42.87;101166.13;213230;1294;138798;-83
2023/04/06 10:36:32;;;;;;;13.30;6.40;;;;;;;16.08;42.98;101156.05;213727;1296;138557;-85
2023/04/06 10:41:34;;;;;;;11.90;5.90;;;;;;;16.43;43.19;101156.94;212952;1293;139422;-86
2023/04/06 10:46:34;;;;;;;10.10;6.00;;;;;;;17.11;44.82;101149.77;213580;1294;96187;-87
2023/04/06 10:51:38;;;;;;;11.30;6.60;;;;;;;17.21;41.50;101146.97;213084;1293;138786;-83
2023/04/06 10:56:39;;;;;;;12.30;6.40;;;;;;;17.07;39.90;101142.96;213537;1293;138210;-86
2023/04/06 11:01:44;;;;;;;11.90;5.90;;;;;;;16.84;40.37;101140.91;213049;1292;138773;-84
2023/04/06 11:06:49;;;;;;;10.70;6.30;;;;;;;16.78;38.16;101136.30;213577;1294;138232;-89
2023/04/06 11:11:49;;;;;;;14.60;10.30;;;;;;;15.59;37.95;101136.01;212934;1292;138409;-87
2023/04/06 11:16:50;;;;;;;14.00;6.70;;;;;;;15.36;37.84;101134.23;213699;1291;109316;-86
2023/04/06 11:21:51;;;;;;;10.40;5.50;;;;;;;15.92;41.80;101122.40;213159;1294;137888;-87
2023/04/06 11:26:58;;;;;;;11.40;6.50;;;;;;;16.81;40.02;101116.13;213786;1293;138300;-88
2023/04/06 11:32:04;;;;;;;10.80;5.80;;;;;;;16.55;37.41;101114.27;212899;1296;138431;-87
2023/04/06 11:37:09;;;;;;;10.80;5.90;;;;;;;15.74;37.51;101112.42;213448;1296;138562;-86
2023/04/06 11:42:09;;;;;;;10.40;5.50;;;;;;;15.40;37.63;101113.14;213421;1292;139192;-86
2023/04/06 11:47:11;;;;;;;12.20;6.50;;;;;;;15.21;37.64;101105.45;213481;1296;138186;-86
2023/04/06 11:52:18;;;;;;;10.50;5.40;;;;;;;14.56;37.12;101098.20;213115;1294;137411;-87
2023/04/06 11:57:21;;;;;;;10.80;5.50;;;;;;;14.57;39.81;101096.23;213591;1294;137580;-86
2023/04/06 12:02:21;;;;;;;10.10;5.60;;;;;;;14.83;39.57;101089.55;213000;1294;138327;-86
2023/04/06 12:07:22;;;;;;;9.70;5.70;;;;;;;15.03;40.40;101085.91;213582;1293;137946;-87
2023/04/06 12:12:22;;;;;;;11.20;6.10;;;;;;;15.09;39.50;101084.83;213397;1294;139678;-85
2023/04/06 12:17:23;;;;;;;12.10;6.70;;;;;;;14.66;38.34;101082.90;215578;1295;137581;-84
2023/04/06 12:22:23;;;;;;;13.20;6.70;;;;;;;14.34;39.75;101080.44;215272;1293;137770;-85
2023/04/06 12:27:24;;;;;;;9.20;5.80;;;;;;;14.24;40.01;101082.88;216528;1292;138891;-84
2023/04/06 12:32:25;;;;;;;13.10;6.40;;;;;;;14.21;41.40;101075.52;215503;1295;137727;-84
2023/04/06 12:37:26;;;;;;;13.10;6.50;;;;;;;14.24;41.54;101065.17;215769;1293;138127;-85
2023/04/06 12:42:27;;;;;;;11.90;6.00;;;;;;;14.42;42.85;101056.98;215499;1292;138989;-85
2023/04/06 12:47:28;;;;;;;10.20;5.80;;;;;;;14.47;41.70;101050.91;215758;1293;138917;-86
2023/04/06 12:52:31;;;;;;;13.20;6.00;;;;;;;14.25;40.36;101046.02;215315;1292;138847;-85
2023/04/06 12:57:31;;;;;;;9.60;5.20;;;;;;;14.06;41.05;101045.73;215551;1297;138705;-86
2023/04/06 13:02:31;;;;;;;12.90;6.70;;;;;;;13.92;40.59;101040.73;215172;1295;139768;-86
2023/04/06 13:07:32;;;;;;;15.40;7.40;;;;;;;13.77;40.59;101033.19;215680;1293;138359;-87
2023/04/06 13:12:32;;;;;;;10.80;5.60;;;;;;;13.54;40.27;101034.63;215089;1292;138480;-88
2023/04/06 13:17:33;;;;;;;10.60;5.10;;;;;;;13.20;40.93;101029.59;215625;1294;138971;-86
2023/04/06 13:22:34;;;;;;;10.50;5.70;;;;;;;13.03;40.53;101023.80;215189;1293;137726;-87
2023/04/06 13:27:35;;;;;;;11.10;5.90;;;;;;;12.88;41.54;101020.55;215719;1291;137940;-88
2023/04/06 13:32:36;;;;;;;12.70;5.50;;;;;;;12.75;41.68;101019.67;215086;1293;138624;-86
2023/04/06 13:37:36;;;;;;;12.30;5.90;;;;;;;12.71;41.94;101015.99;215717;1292;138005;-87
2023/04/06 13:42:39;;;;;;;15.00;7.10;;;;;;;12.68;41.22;101006.90;215214;1295;138419;-89
2023/04/06 13:47:40;;;;;;;13.50;7.30;;;;;;;12.24;41.17;101006.55;215811;1293;137980;-88
2023/04/06 13:52:41;;;;;;;12.30;6.60;;;;;;;12.08;43.07;100997.52;215448;1292;138111;-88
2023/04/06 13:57:42;;;;;;;12.30;6.90;;;;;;;12.13;42.45;101000.66;215611;1296;137654;-88
2023/04/06 14:02:42;;;;;;;10.80;5.90;;;;;;;12.12;44.28;100997.81;215356;1293;138101;-89
2023/04/06 14:07:43;;;;;;;15.40;8.30;;;;;;;12.02;41.96;100996.79;216154;1293;137771;-88
2023/04/06 14:12:44;;;;;;;10.40;5.80;;;;;;;11.70;42.78;100989.86;216154;1292;138287;-88
2023/04/06 14:17:44;;;;;;;12.50;7.20;;;;;;;11.72;44.44;100987.60;215812;1293;138294;-88
2023/04/06 14:22:46;;;;;;;12.90;6.80;;;;;;;11.59;43.03;100982.13;215419;1293;138646;-88
2023/04/06 14:27:46;;;;;;;12.40;6.70;;;;;;;11.53;46.14;100978.52;215880;1296;137866;-87
2023/04/06 14:32:47;;;;;;;11.10;5.90;;;;;;;11.53;45.07;100973.64;215303;1292;138168;-88
2023/04/06 14:37:47;;;;;;;11.40;6.10;;;;;;;11.41;45.39;100975.89;215705;1293;138402;-88
2023/04/06 14:42:48;;;;;;;12.90;6.30;;;;;;;11.34;45.17;100969.88;215176;1296;139550;-88
2023/04/06 14:47:49;;;;;;;10.60;6.40;;;;;;;11.18;44.85;100970.32;216020;1292;139311;-89
2023/04/06 14:52:49;;;;;;;11.20;6.10;;;;;;;10.94;45.96;100963.98;215510;1297;138815;-89
2023/04/06 14:57:49;;;;;;;12.90;6.60;;;;;;;10.82;45.05;100960.68;215995;1295;137851;-88
2023/04/06 15:02:50;;;;;;;12.10;5.60;;;;;;;10.59;45.48;100962.20;215401;1293;138443;-90
2023/04/06 15:07:50;;;;;;;13.90;6.60;;;;;;;10.50;46.86;100961.34;215804;1293;138459;-90
2023/04/06 15:12:51;;;;;;;11.90;6.60;;;;;;;10.27;45.64;100962.27;215382;1292;139077;-89
2023/04/06 15:17:51;;;;;;;11.30;6.50;;;;;;;10.06;46.02;100956.94;215944;1295;138190;-89
2023/04/06 15:22:51;;;;;;;10.80;5.30;;;;;;;9.90;46.15;100952.17;215534;1292;138085;-89
2023/04/06 15:27:53;;;;;;;10.50;6.10;;;;;;;9.78;46.91;100960.69;216066;1292;138539;-88
2023/04/06 15:33:06;;;;;;;14.20;6.80;;;;;;;9.60;46.64;100957.61;215426;1293;137642;-87
2023/04/06 15:38:07;;;;;;;11.90;6.50;;;;;;;9.46;48.15;100956.48;216419;1292;137955;-87
2023/04/06 15:43:07;;;;;;;16.30;7.70;;;;;;;9.39;47.95;100954.14;216327;1293;137998;-87
2023/04/06 15:48:18;;;;;;;15.60;7.50;;;;;;;9.22;47.08;100954.56;217624;1293;137595;-90
2023/04/06 15:53:19;;;;;;;12.00;6.40;;;;;;;9.06;48.36;100956.20;216900;1295;137765;-90
2023/04/06 15:58:20;;;;;;;13.40;8.30;;;;;;;9.03;48.55;100955.98;217899;1294;95234;-90
2023/04/06 16:08:33;;;;;;;13.30;7.00;;;;;;;8.73;48.29;100956.66;217892;1290;138111;-88
2023/04/06 16:13:33;;;;;;;14.80;9.60;;;;;;;8.63;48.96;100951.40;217517;1291;137879;-87
2023/04/06 16:18:34;;;;;;;14.60;7.50;;;;;;;8.56;49.11;100955.73;217973;1291;159847;-87
2023/04/06 16:23:35;;;;;;;14.50;7.20;;;;;;;8.53;50.08;100955.04;217497;1291;138295;-86
2023/04/06 16:28:36;;;;;;;13.60;7.10;;;;;;;8.52;50.13;100955.70;218151;1291;98678;-87
2023/04/06 16:33:36;;;;;;;14.10;7.90;;;;;;;8.47;49.65;100955.88;217638;1291;137569;-87
2023/04/06 16:38:37;;;;;;;15.10;7.80;;;;;;;8.36;48.98;100953.92;218006;1291;137486;-87
2023/04/06 16:43:37;;;;;;;12.40;7.40;;;;;;;8.30;50.02;100953.45;217686;1291;138093;-86
2023/04/06 16:48:38;;;;;;;15.30;7.60;;;;;;;8.23;50.19;100950.50;218163;1291;137475;-87
2023/04/06 16:53:38;;;;;;;12.60;6.60;;;;;;;8.17;50.61;100951.30;217597;1292;137913;-86
2023/04/06 16:58:38;;;;;;;14.00;8.10;;;;;;;8.10;51.09;100951.47;218053;1291;95039;-86
2023/04/06 17:03:39;;;;;;;12.70;7.10;;;;;;;8.02;51.10;100950.06;217585;1291;137284;-87
2023/04/06 17:08:44;;;;;;;12.20;6.70;;;;;;;7.91;51.27;100943.96;218173;1291;137392;-87
2023/04/06 17:13:47;;;;;;;19.80;12.10;;;;;;;7.83;52.14;100944.19;217415;1294;137570;-86
2023/04/06 17:18:48;;;;;;;24.40;19.50;;;;;;;7.75;52.81;100941.20;217570;1291;138784;-85
2023/04/06 17:23:49;;;;;;;34.30;28.40;;;;;;;7.66;53.08;100940.23;218268;1291;137783;-88
2023/04/06 17:28:50;;;;;;;20.70;15.50;;;;;;;7.51;52.96;100940.30;217368;1292;138424;-85
2023/04/06 17:33:50;;;;;;;51.70;37.60;;;;;;;7.43;54.25;100941.15;217958;1294;138081;-84
2023/04/06 17:38:51;;;;;;;30.00;23.70;;;;;;;7.36;54.96;100939.89;217556;1291;138674;-86
2023/04/06 17:43:51;;;;;;;34.70;20.40;;;;;;;7.26;55.49;100945.51;218067;1291;138311;-86
2023/04/06 17:48:52;;;;;;;73.40;33.00;;;;;;;7.11;55.30;100949.55;217404;1292;138952;-85
2023/04/06 17:53:52;;;;;;;20.30;11.50;;;;;;;6.95;55.49;100949.10;218012;1291;138077;-85
2023/04/06 17:58:56;;;;;;;29.70;14.50;;;;;;;6.73;55.65;100950.63;217698;1294;138633;-84
2023/04/06 18:03:57;;;;;;;32.20;16.90;;;;;;;6.56;56.20;100950.06;218085;1291;137754;-84
2023/04/06 18:08:58;;;;;;;28.00;12.40;;;;;;;6.38;57.42;100949.83;217614;1291;140628;-86
2023/04/06 18:13:59;;;;;;;20.10;9.00;;;;;;;6.16;57.83;100953.79;218082;1292;137975;-84
2023/04/06 18:19:00;;;;;;;17.00;9.50;;;;;;;5.94;59.19;100959.28;217546;1292;138202;-85
2023/04/06 18:24:00;;;;;;;18.30;9.40;;;;;;;5.74;59.99;100955.66;217991;1290;137759;-84
2023/04/06 18:29:01;;;;;;;22.20;12.50;;;;;;;5.51;59.63;100956.17;217538;1292;138871;-85
2023/04/06 18:34:02;;;;;;;29.20;15.80;;;;;;;5.33;60.36;100957.63;218075;1291;137531;-85
2023/04/06 18:39:02;;;;;;;22.10;11.80;;;;;;;5.18;60.96;100963.53;217492;1295;138342;-83
2023/04/06 18:44:03;;;;;;;26.10;13.30;;;;;;;5.05;61.57;100965.03;217902;1291;137778;-86
2023/04/06 18:49:04;;;;;;;25.70;13.40;;;;;;;4.92;61.95;100961.98;217527;1292;139294;-85
2023/04/06 18:54:04;;;;;;;29.80;14.60;;;;;;;4.78;62.90;100958.84;217943;1291;137677;-86
2023/04/06 18:59:05;;;;;;;21.80;13.90;;;;;;;4.67;63.10;100957.10;217544;1291;137876;-86
2023/04/06 19:04:06;;;;;;;26.10;14.30;;;;;;;4.55;64.00;100958.71;218047;1292;138303;-86
2023/04/06 19:09:06;;;;;;;23.30;12.70;;;;;;;4.47;64.67;100958.57;217431;1292;138780;-85
2023/04/06 19:14:07;;;;;;;26.40;14.10;;;;;;;4.39;65.12;100961.33;217856;1292;137822;-85
2023/04/06 19:20:03;;;;;;;31.30;15.70;;;;;;;4.37;65.81;100962.71;217490;1292;137861;-86
2023/04/06 19:24:36;;;;;;;38.60;18.20;;;;;;;4.37;65.96;100963.10;218340;1295;138850;-85
2023/04/06 19:29:37;;;;;;;38.40;19.30;;;;;;;4.35;66.16;100959.70;217735;1292;138010;-87
2023/04/06 19:34:38;;;;;;;38.20;20.30;;;;;;;4.35;66.49;100960.60;218367;1292;95286;-86
2023/04/06 19:39:39;;;;;;;56.00;27.40;;;;;;;4.35;66.48;100957.52;217779;1292;137729;-86
2023/04/06 19:44:39;;;;;;;51.70;25.50;;;;;;;4.38;67.20;100959.03;218257;1289;137713;-86
2023/04/06 19:49:40;;;;;;;49.90;27.10;;;;;;;4.43;67.55;100956.61;217670;1289;138321;-86
2023/04/06 19:54:40;;;;;;;59.60;28.30;;;;;;;4.48;67.50;100949.10;218159;1291;138187;-86
2023/04/06 19:59:41;;;;;;;47.60;24.10;;;;;;;4.51;66.91;100948.80;217711;1289;137861;-86
2023/04/06 20:04:41;;;;;;;58.30;26.00;;;;;;;4.55;67.08;100945.79;218329;1291;94697;-87
2023/04/06 20:09:42;;;;;;;48.60;24.60;;;;;;;4.60;66.79;100947.15;217679;1292;138139;-86
2023/04/06 20:14:42;;;;;;;46.40;23.30;;;;;;;4.63;66.14;100949.91;218318;1292;137646;-88
2023/04/06 20:25:40;;;;;;;26.50;14.20;;;;;;;4.73;67.10;100949.10;217865;1292;137827;-86
2023/04/06 20:30:40;;;;;;;28.50;12.80;;;;;;;4.75;66.44;100958.33;217527;1291;137604;-87
2023/04/06 20:35:40;;;;;;;72.30;23.40;;;;;;;4.78;64.96;100957.59;218073;1291;137625;-87
2023/04/06 20:40:45;;;;;;;64.30;19.70;;;;;;;4.81;65.32;100955.69;217660;1291;138369;-88
2023/04/06 20:45:52;;;;;;;25.00;10.90;;;;;;;4.85;66.31;100955.94;217933;1292;137431;-89
2023/04/06 20:50:52;;;;;;;52.50;20.00;;;;;;;4.88;65.01;100955.06;217321;1291;137959;-88
2023/04/06 20:55:53;;;;;;;73.50;23.20;;;;;;;4.93;65.21;100955.88;217966;1291;138174;-88
2023/04/06 21:00:54;;;;;;;58.90;22.60;;;;;;;4.96;64.79;100960.01;217508;1291;137984;-86
2023/04/06 21:06:00;;;;;;;31.70;15.00;;;;;;;5.00;64.66;100964.21;218075;1291;137763;-85
2023/04/06 21:11:01;;;;;;;;;;;;;;;5.04;65.19;100962.95;217434;1291;137740;-85
2023/04/06 21:16:02;;;;;;;79.50;28.60;;;;;;;5.05;66.19;100962.78;217780;1291;124100;-87
2023/04/06 21:21:03;;;;;;;38.80;15.80;;;;;;;5.07;67.02;100961.40;217553;1291;138307;-89
2023/04/06 21:26:03;;;;;;;27.50;11.90;;;;;;;5.07;67.85;100961.80;218153;1291;138061;-88
2023/04/06 21:31:07;;;;;;;24.30;11.00;;;;;;;5.07;68.19;100961.55;217629;1291;138565;-89
2023/04/06 21:36:08;;;;;;;31.30;13.10;;;;;;;5.08;68.72;100959.70;218136;1291;137760;-89
2023/04/06 21:41:08;;;;;;;52.80;19.10;;;;;;;5.08;69.08;100958.86;217765;1291;137921;-89
2023/04/06 21:46:09;;;;;;;37.60;15.30;;;;;;;5.10;69.15;100956.83;218158;1291;137565;-88
2023/04/06 21:51:15;;;;;;;23.90;9.30;;;;;;;5.10;69.35;100955.58;217614;1291;137884;-88
2023/04/06 21:56:23;;;;;;;24.00;10.10;;;;;;;5.07;68.81;100951.97;218178;1291;137356;-88
2023/04/06 22:01:23;;;;;;;23.70;11.10;;;;;;;5.06;68.71;100948.95;217620;1291;138058;-87
2023/04/06 22:06:24;;;;;;;14.20;6.60;;;;;;;5.07;69.13;100944.45;218027;1292;137766;-88
2023/04/06 22:11:25;;;;;;;14.90;6.20;;;;;;;5.08;69.37;100947.45;217657;1291;137670;-86
2023/04/06 22:16:25;;;;;;;15.60;6.50;;;;;;;5.08;69.19;100945.23;218235;1291;94767;-89
2023/04/06 22:21:26;;;;;;;13.90;6.50;;;;;;;5.07;69.64;100939.02;217633;1291;137845;-88
2023/04/06 22:26:26;;;;;;;13.90;6.30;;;;;;;5.04;69.47;100938.02;218175;1291;137398;-89
2023/04/06 22:31:27;;;;;;;14.60;6.10;;;;;;;5.02;69.38;100936.99;217656;1291;137908;-87
2023/04/06 22:36:27;;;;;;;15.90;7.60;;;;;;;5.00;69.43;100931.39;218105;1291;137467;-89
2023/04/06 22:41:28;;;;;;;16.10;6.50;;;;;;;4.98;69.42;100930.55;217616;1291;138079;-92
2023/04/06 22:46:29;;;;;;;19.90;7.30;;;;;;;4.94;69.35;100926.15;218311;1291;94592;-91